sensor_id;sensor_type;location;lat;lon;timestamp;pressure;altitude;pressure_sealevel;temperature
67822;BMP180;54434;50.096;20.082;2022-12-18T00:00:24;100194.80;;;-4.00
67822;BMP180;54434;50.096;20.082;2022-12-18T00:03:26;100200.00;;;-4.00
67822;BMP180;54434;50.096;20.082;2022-12-18T00:06:02;100204.80;;;-4.00
67822;BMP180;54434;50.096;20.082;2022-12-18T00:08:39;100208.20;;;-4.00
67822;BMP180;54434;50.096;20.082;2022-12-18T00:11:19;100208.40;;;-4.00
67822;BMP180;54434;50.096;20.082;2022-12-18T00:13:58;100206.00;;;-4.00
67822;BMP180;54434;50.096;20.082;2022-12-18T00:16:35;100214.20;;;-4.00
67822;BMP180;54434;50.096;20.082;2022-12-18T00:19:13;100212.40;;;-4.00
67822;BMP180;54434;50.096;20.082;2022-12-18T00:21:49;100218.60;;;-4.00
67822;BMP180;54434;50.096;20.082;2022-12-18T00:24:26;100225.80;;;-4.00
67822;BMP180;54434;50.096;20.082;2022-12-18T00:27:02;100230.80;;;-4.00
67822;BMP180;54434;50.096;20.082;2022-12-18T00:29:38;100241.00;;;-4.00
67822;BMP180;54434;50.096;20.082;2022-12-18T00:32:16;100246.60;;;-4.00
67822;BMP180;54434;50.096;20.082;2022-12-18T00:34:52;100246.20;;;-4.00
67822;BMP180;54434;50.096;20.082;2022-12-18T00:37:28;100251.20;;;-4.00
67822;BMP180;54434;50.096;20.082;2022-12-18T00:40:05;100248.40;;;-3.98
67822;BMP180;54434;50.096;20.082;2022-12-18T00:42:42;100249.80;;;-3.92
67822;BMP180;54434;50.096;20.082;2022-12-18T00:45:34;100255.40;;;-3.94
67822;BMP180;54434;50.096;20.082;2022-12-18T00:48:10;100258.40;;;-3.90
67822;BMP180;54434;50.096;20.082;2022-12-18T00:50:48;100260.80;;;-3.90
67822;BMP180;54434;50.096;20.082;2022-12-18T00:53:24;100266.20;;;-3.90
67822;BMP180;54434;50.096;20.082;2022-12-18T00:56:00;100271.20;;;-3.90
67822;BMP180;54434;50.096;20.082;2022-12-18T00:58:36;100274.40;;;-3.90
67822;BMP180;54434;50.096;20.082;2022-12-18T01:01:12;100279.00;;;-3.90
67822;BMP180;54434;50.096;20.082;2022-12-18T01:03:49;100282.80;;;-3.90
67822;BMP180;54434;50.096;20.082;2022-12-18T01:06:27;100284.80;;;-3.90
67822;BMP180;54434;50.096;20.082;2022-12-18T01:09:03;100290.20;;;-3.90
67822;BMP180;54434;50.096;20.082;2022-12-18T01:11:42;100289.40;;;-3.90
67822;BMP180;54434;50.096;20.082;2022-12-18T01:14:18;100296.40;;;-3.92
67822;BMP180;54434;50.096;20.082;2022-12-18T01:16:54;100305.60;;;-3.98
67822;BMP180;54434;50.096;20.082;2022-12-18T01:19:30;100297.60;;;-4.00
67822;BMP180;54434;50.096;20.082;2022-12-18T01:22:06;100307.00;;;-4.00
67822;BMP180;54434;50.096;20.082;2022-12-18T01:24:42;100302.00;;;-4.00
67822;BMP180;54434;50.096;20.082;2022-12-18T01:27:18;100306.60;;;-4.04
67822;BMP180;54434;50.096;20.082;2022-12-18T01:29:55;100302.80;;;-4.10
67822;BMP180;54434;50.096;20.082;2022-12-18T01:32:33;100306.80;;;-4.10
67822;BMP180;54434;50.096;20.082;2022-12-18T01:35:11;100310.60;;;-4.10
67822;BMP180;54434;50.096;20.082;2022-12-18T01:37:47;100316.60;;;-4.10
67822;BMP180;54434;50.096;20.082;2022-12-18T01:40:23;100307.40;;;-4.14
67822;BMP180;54434;50.096;20.082;2022-12-18T01:42:59;100310.20;;;-4.16
67822;BMP180;54434;50.096;20.082;2022-12-18T01:45:35;100310.60;;;-4.20
67822;BMP180;54434;50.096;20.082;2022-12-18T01:48:12;100313.60;;;-4.14
67822;BMP180;54434;50.096;20.082;2022-12-18T01:50:48;100317.20;;;-4.16
67822;BMP180;54434;50.096;20.082;2022-12-18T01:53:26;100326.20;;;-4.10
67822;BMP180;54434;50.096;20.082;2022-12-18T01:56:02;100325.20;;;-4.10
67822;BMP180;54434;50.096;20.082;2022-12-18T01:58:48;100333.80;;;-4.10
67822;BMP180;54434;50.096;20.082;2022-12-18T02:01:27;100339.40;;;-4.10
67822;BMP180;54434;50.096;20.082;2022-12-18T02:04:26;100340.60;;;-4.10
67822;BMP180;54434;50.096;20.082;2022-12-18T02:07:14;100341.40;;;-4.10
67822;BMP180;54434;50.096;20.082;2022-12-18T02:09:57;100343.20;;;-4.10
67822;BMP180;54434;50.096;20.082;2022-12-18T02:12:45;100351.40;;;-4.10
67822;BMP180;54434;50.096;20.082;2022-12-18T02:15:34;100357.60;;;-4.00
67822;BMP180;54434;50.096;20.082;2022-12-18T02:18:18;100355.80;;;-4.00
67822;BMP180;54434;50.096;20.082;2022-12-18T02:21:10;100361.20;;;-4.00
67822;BMP180;54434;50.096;20.082;2022-12-18T02:24:00;100362.00;;;-4.00
67822;BMP180;54434;50.096;20.082;2022-12-18T02:26:46;100367.40;;;-4.00
67822;BMP180;54434;50.096;20.082;2022-12-18T02:29:28;100372.00;;;-4.00
67822;BMP180;54434;50.096;20.082;2022-12-18T02:32:11;100370.40;;;-4.00
67822;BMP180;54434;50.096;20.082;2022-12-18T02:34:51;100373.40;;;-4.00
67822;BMP180;54434;50.096;20.082;2022-12-18T02:37:31;100375.40;;;-4.00
67822;BMP180;54434;50.096;20.082;2022-12-18T02:40:13;100381.20;;;-4.00
67822;BMP180;54434;50.096;20.082;2022-12-18T02:42:49;100376.60;;;-4.00
67822;BMP180;54434;50.096;20.082;2022-12-18T02:45:25;100379.60;;;-4.00
67822;BMP180;54434;50.096;20.082;2022-12-18T02:48:02;100385.20;;;-3.94
67822;BMP180;54434;50.096;20.082;2022-12-18T02:50:48;100392.40;;;-4.00
67822;BMP180;54434;50.096;20.082;2022-12-18T02:53:36;100399.60;;;-4.00
67822;BMP180;54434;50.096;20.082;2022-12-18T02:56:20;100396.00;;;-4.00
67822;BMP180;54434;50.096;20.082;2022-12-18T02:59:04;100395.20;;;-4.00
67822;BMP180;54434;50.096;20.082;2022-12-18T03:01:57;100403.40;;;-4.00
67822;BMP180;54434;50.096;20.082;2022-12-18T03:04:46;100404.40;;;-4.00
67822;BMP180;54434;50.096;20.082;2022-12-18T03:07:36;100407.00;;;-4.00
67822;BMP180;54434;50.096;20.082;2022-12-18T03:10:21;100406.40;;;-3.98
67822;BMP180;54434;50.096;20.082;2022-12-18T03:13:04;100404.80;;;-4.00
67822;BMP180;54434;50.096;20.082;2022-12-18T03:15:47;100411.20;;;-3.98
67822;BMP180;54434;50.096;20.082;2022-12-18T03:18:29;100414.40;;;-4.00
67822;BMP180;54434;50.096;20.082;2022-12-18T03:21:09;100421.00;;;-4.00
67822;BMP180;54434;50.096;20.082;2022-12-18T03:23:50;100421.00;;;-4.00
67822;BMP180;54434;50.096;20.082;2022-12-18T03:26:29;100423.80;;;-4.00
67822;BMP180;54434;50.096;20.082;2022-12-18T03:29:12;100420.40;;;-3.94
67822;BMP180;54434;50.096;20.082;2022-12-18T03:31:55;100421.80;;;-3.98
67822;BMP180;54434;50.096;20.082;2022-12-18T03:34:37;100427.00;;;-3.90
67822;BMP180;54434;50.096;20.082;2022-12-18T03:37:14;100431.60;;;-3.92
67822;BMP180;54434;50.096;20.082;2022-12-18T03:39:51;100435.00;;;-3.90
67822;BMP180;54434;50.096;20.082;2022-12-18T03:42:35;100438.40;;;-3.90
67822;BMP180;54434;50.096;20.082;2022-12-18T03:45:26;100442.00;;;-3.90
67822;BMP180;54434;50.096;20.082;2022-12-18T03:48:11;100450.00;;;-3.94
67822;BMP180;54434;50.096;20.082;2022-12-18T03:50:57;100454.00;;;-4.00
67822;BMP180;54434;50.096;20.082;2022-12-18T03:53:47;100460.40;;;-4.00
67822;BMP180;54434;50.096;20.082;2022-12-18T03:56:30;100458.00;;;-4.00
67822;BMP180;54434;50.096;20.082;2022-12-18T03:59:09;100458.60;;;-4.00
67822;BMP180;54434;50.096;20.082;2022-12-18T04:01:50;100454.80;;;-4.00
67822;BMP180;54434;50.096;20.082;2022-12-18T04:04:31;100461.00;;;-4.00
67822;BMP180;54434;50.096;20.082;2022-12-18T04:07:10;100467.80;;;-4.02
67822;BMP180;54434;50.096;20.082;2022-12-18T04:09:52;100471.40;;;-4.00
67822;BMP180;54434;50.096;20.082;2022-12-18T04:12:31;100467.60;;;-4.02
67822;BMP180;54434;50.096;20.082;2022-12-18T04:15:11;100468.00;;;-4.00
67822;BMP180;54434;50.096;20.082;2022-12-18T04:17:50;100469.80;;;-4.00
67822;BMP180;54434;50.096;20.082;2022-12-18T04:20:29;100468.40;;;-4.00
67822;BMP180;54434;50.096;20.082;2022-12-18T04:23:05;100470.60;;;-4.04
67822;BMP180;54434;50.096;20.082;2022-12-18T04:25:41;100473.20;;;-4.02
67822;BMP180;54434;50.096;20.082;2022-12-18T04:28:21;100469.60;;;-4.00
67822;BMP180;54434;50.096;20.082;2022-12-18T04:30:57;100475.80;;;-4.00
67822;BMP180;54434;50.096;20.082;2022-12-18T04:33:34;100480.20;;;-4.00
67822;BMP180;54434;50.096;20.082;2022-12-18T04:36:11;100484.80;;;-4.00
67822;BMP180;54434;50.096;20.082;2022-12-18T04:38:48;100491.00;;;-4.00
67822;BMP180;54434;50.096;20.082;2022-12-18T04:41:24;100492.80;;;-4.00
67822;BMP180;54434;50.096;20.082;2022-12-18T04:44:00;100498.60;;;-4.00
67822;BMP180;54434;50.096;20.082;2022-12-18T04:46:36;100499.00;;;-4.00
67822;BMP180;54434;50.096;20.082;2022-12-18T04:49:12;100500.60;;;-4.00
67822;BMP180;54434;50.096;20.082;2022-12-18T04:51:49;100504.00;;;-4.00
67822;BMP180;54434;50.096;20.082;2022-12-18T04:54:25;100501.20;;;-4.10
67822;BMP180;54434;50.096;20.082;2022-12-18T04:57:01;100513.40;;;-4.08
67822;BMP180;54434;50.096;20.082;2022-12-18T04:59:37;100515.00;;;-4.10
67822;BMP180;54434;50.096;20.082;2022-12-18T05:02:13;100519.40;;;-4.10
67822;BMP180;54434;50.096;20.082;2022-12-18T05:04:50;100524.80;;;-4.10
67822;BMP180;54434;50.096;20.082;2022-12-18T05:07:26;100522.60;;;-4.12
67822;BMP180;54434;50.096;20.082;2022-12-18T05:10:02;100527.20;;;-4.10
67822;BMP180;54434;50.096;20.082;2022-12-18T05:12:39;100533.00;;;-4.10
67822;BMP180;54434;50.096;20.082;2022-12-18T05:15:32;100532.20;;;-4.14
67822;BMP180;54434;50.096;20.082;2022-12-18T05:18:08;100534.60;;;-4.14
67822;BMP180;54434;50.096;20.082;2022-12-18T05:20:44;100538.60;;;-4.10
67822;BMP180;54434;50.096;20.082;2022-12-18T05:23:22;100540.60;;;-4.10
67822;BMP180;54434;50.096;20.082;2022-12-18T05:26:01;100540.60;;;-4.20
67822;BMP180;54434;50.096;20.082;2022-12-18T05:28:38;100551.60;;;-4.12
67822;BMP180;54434;50.096;20.082;2022-12-18T05:31:15;100548.40;;;-4.20
67822;BMP180;54434;50.096;20.082;2022-12-18T05:33:53;100547.60;;;-4.20
67822;BMP180;54434;50.096;20.082;2022-12-18T05:36:29;100549.60;;;-4.20
67822;BMP180;54434;50.096;20.082;2022-12-18T05:39:06;100553.00;;;-4.20
67822;BMP180;54434;50.096;20.082;2022-12-18T05:41:42;100552.00;;;-4.20
67822;BMP180;54434;50.096;20.082;2022-12-18T05:44:18;100551.40;;;-4.20
67822;BMP180;54434;50.096;20.082;2022-12-18T05:46:54;100559.00;;;-4.20
67822;BMP180;54434;50.096;20.082;2022-12-18T05:49:30;100565.20;;;-4.20
67822;BMP180;54434;50.096;20.082;2022-12-18T05:52:06;100568.00;;;-4.20
67822;BMP180;54434;50.096;20.082;2022-12-18T05:54:43;100565.00;;;-4.20
67822;BMP180;54434;50.096;20.082;2022-12-18T05:57:19;100566.60;;;-4.20
67822;BMP180;54434;50.096;20.082;2022-12-18T05:59:55;100572.00;;;-4.20
67822;BMP180;54434;50.096;20.082;2022-12-18T06:02:31;100576.00;;;-4.20
67822;BMP180;54434;50.096;20.082;2022-12-18T06:05:09;100579.00;;;-4.20
67822;BMP180;54434;50.096;20.082;2022-12-18T06:07:45;100585.80;;;-4.24
67822;BMP180;54434;50.096;20.082;2022-12-18T06:10:21;100583.60;;;-4.28
67822;BMP180;54434;50.096;20.082;2022-12-18T06:12:57;100588.00;;;-4.30
67822;BMP180;54434;50.096;20.082;2022-12-18T06:15:35;100593.00;;;-4.30
67822;BMP180;54434;50.096;20.082;2022-12-18T06:18:11;100597.40;;;-4.30
67822;BMP180;54434;50.096;20.082;2022-12-18T06:20:55;100605.00;;;-4.30
67822;BMP180;54434;50.096;20.082;2022-12-18T06:23:31;100610.00;;;-4.30
67822;BMP180;54434;50.096;20.082;2022-12-18T06:26:12;100607.40;;;-4.38
67822;BMP180;54434;50.096;20.082;2022-12-18T06:28:48;100609.20;;;-4.36
67822;BMP180;54434;50.096;20.082;2022-12-18T06:31:24;100606.20;;;-4.32
67822;BMP180;54434;50.096;20.082;2022-12-18T06:34:03;100610.00;;;-4.36
67822;BMP180;54434;50.096;20.082;2022-12-18T06:36:39;100617.60;;;-4.30
67822;BMP180;54434;50.096;20.082;2022-12-18T06:39:15;100617.60;;;-4.30
67822;BMP180;54434;50.096;20.082;2022-12-18T06:41:51;100617.80;;;-4.30
67822;BMP180;54434;50.096;20.082;2022-12-18T06:44:27;100626.40;;;-4.30
67822;BMP180;54434;50.096;20.082;2022-12-18T06:47:03;100633.00;;;-4.30
67822;BMP180;54434;50.096;20.082;2022-12-18T06:49:39;100642.20;;;-4.30
67822;BMP180;54434;50.096;20.082;2022-12-18T06:52:15;100638.80;;;-4.30
67822;BMP180;54434;50.096;20.082;2022-12-18T06:54:51;100638.00;;;-4.28
67822;BMP180;54434;50.096;20.082;2022-12-18T06:57:27;100644.80;;;-4.20
67822;BMP180;54434;50.096;20.082;2022-12-18T07:00:05;100651.60;;;-4.20
67822;BMP180;54434;50.096;20.082;2022-12-18T07:02:42;100655.60;;;-4.20
67822;BMP180;54434;50.096;20.082;2022-12-18T07:05:18;100656.40;;;-4.20
67822;BMP180;54434;50.096;20.082;2022-12-18T07:07:54;100658.20;;;-4.20
67822;BMP180;54434;50.096;20.082;2022-12-18T07:10:30;100666.20;;;-4.16
67822;BMP180;54434;50.096;20.082;2022-12-18T07:13:06;100672.60;;;-4.10
67822;BMP180;54434;50.096;20.082;2022-12-18T07:15:42;100674.00;;;-4.10
67822;BMP180;54434;50.096;20.082;2022-12-18T07:18:18;100674.40;;;-4.10
67822;BMP180;54434;50.096;20.082;2022-12-18T07:20:54;100675.40;;;-4.04
67822;BMP180;54434;50.096;20.082;2022-12-18T07:23:31;100682.00;;;-4.00
67822;BMP180;54434;50.096;20.082;2022-12-18T07:26:10;100682.00;;;-4.00
67822;BMP180;54434;50.096;20.082;2022-12-18T07:28:47;100686.20;;;-4.00
67822;BMP180;54434;50.096;20.082;2022-12-18T07:31:25;100688.60;;;-3.90
67822;BMP180;54434;50.096;20.082;2022-12-18T07:34:01;100694.40;;;-3.90
67822;BMP180;54434;50.096;20.082;2022-12-18T07:36:37;100698.00;;;-3.82
67822;BMP180;54434;50.096;20.082;2022-12-18T07:39:15;100704.00;;;-3.80
67822;BMP180;54434;50.096;20.082;2022-12-18T07:41:51;100709.80;;;-3.78
67822;BMP180;54434;50.096;20.082;2022-12-18T07:44:40;100718.00;;;-3.70
67822;BMP180;54434;50.096;20.082;2022-12-18T07:47:17;100718.00;;;-3.70
67822;BMP180;54434;50.096;20.082;2022-12-18T07:49:53;100727.40;;;-3.60
67822;BMP180;54434;50.096;20.082;2022-12-18T07:52:29;100727.40;;;-3.60
67822;BMP180;54434;50.096;20.082;2022-12-18T07:55:06;100727.40;;;-3.50
67822;BMP180;54434;50.096;20.082;2022-12-18T07:57:42;100732.00;;;-3.40
67822;BMP180;54434;50.096;20.082;2022-12-18T08:00:30;100733.60;;;-3.30
67822;BMP180;54434;50.096;20.082;2022-12-18T08:03:06;100738.00;;;-3.22
67822;BMP180;54434;50.096;20.082;2022-12-18T08:05:42;100740.20;;;-3.20
67822;BMP180;54434;50.096;20.082;2022-12-18T08:08:18;100739.60;;;-3.10
67822;BMP180;54434;50.096;20.082;2022-12-18T08:10:54;100734.60;;;-3.02
67822;BMP180;54434;50.096;20.082;2022-12-18T08:13:30;100738.40;;;-3.00
67822;BMP180;54434;50.096;20.082;2022-12-18T08:16:09;100743.40;;;-2.90
67822;BMP180;54434;50.096;20.082;2022-12-18T08:18:45;100743.00;;;-2.90
67822;BMP180;54434;50.096;20.082;2022-12-18T08:21:25;100747.80;;;-2.80
67822;BMP180;54434;50.096;20.082;2022-12-18T08:24:02;100749.40;;;-2.76
67822;BMP180;54434;50.096;20.082;2022-12-18T08:26:38;100757.80;;;-2.70
67822;BMP180;54434;50.096;20.082;2022-12-18T08:29:14;100758.00;;;-2.66
67822;BMP180;54434;50.096;20.082;2022-12-18T08:31:55;100758.20;;;-2.60
67822;BMP180;54434;50.096;20.082;2022-12-18T08:34:31;100765.80;;;-2.50
67822;BMP180;54434;50.096;20.082;2022-12-18T08:37:07;100764.40;;;-2.40
67822;BMP180;54434;50.096;20.082;2022-12-18T08:39:43;100764.40;;;-2.40
67822;BMP180;54434;50.096;20.082;2022-12-18T08:42:19;100767.40;;;-2.30
67822;BMP180;54434;50.096;20.082;2022-12-18T08:45:13;100764.20;;;-2.30
67822;BMP180;54434;50.096;20.082;2022-12-18T08:47:50;100767.00;;;-2.30
67822;BMP180;54434;50.096;20.082;2022-12-18T08:50:25;100770.60;;;-2.20
67822;BMP180;54434;50.096;20.082;2022-12-18T08:53:02;100772.00;;;-2.20
67822;BMP180;54434;50.096;20.082;2022-12-18T08:55:38;100777.60;;;-2.14
67822;BMP180;54434;50.096;20.082;2022-12-18T08:58:16;100774.80;;;-2.14
67822;BMP180;54434;50.096;20.082;2022-12-18T09:00:52;100778.60;;;-2.10
67822;BMP180;54434;50.096;20.082;2022-12-18T09:03:29;100780.20;;;-2.06
67822;BMP180;54434;50.096;20.082;2022-12-18T09:06:06;100775.60;;;-2.10
67822;BMP180;54434;50.096;20.082;2022-12-18T09:08:42;100785.40;;;-2.00
67822;BMP180;54434;50.096;20.082;2022-12-18T09:11:27;100789.00;;;-2.00
67822;BMP180;54434;50.096;20.082;2022-12-18T09:14:04;100788.60;;;-1.94
67822;BMP180;54434;50.096;20.082;2022-12-18T09:16:40;100782.00;;;-1.90
67822;BMP180;54434;50.096;20.082;2022-12-18T09:19:17;100784.20;;;-1.82
67822;BMP180;54434;50.096;20.082;2022-12-18T09:21:53;100785.00;;;-1.80
67822;BMP180;54434;50.096;20.082;2022-12-18T09:24:29;100789.40;;;-1.80
67822;BMP180;54434;50.096;20.082;2022-12-18T09:27:05;100788.60;;;-1.80
67822;BMP180;54434;50.096;20.082;2022-12-18T09:29:42;100792.80;;;-1.80
67822;BMP180;54434;50.096;20.082;2022-12-18T09:32:18;100791.00;;;-1.80
67822;BMP180;54434;50.096;20.082;2022-12-18T09:34:56;100794.20;;;-1.80
67822;BMP180;54434;50.096;20.082;2022-12-18T09:37:32;100793.60;;;-1.70
67822;BMP180;54434;50.096;20.082;2022-12-18T09:40:16;100795.60;;;-1.60
67822;BMP180;54434;50.096;20.082;2022-12-18T09:42:59;100793.60;;;-1.60
67822;BMP180;54434;50.096;20.082;2022-12-18T09:45:43;100795.40;;;-1.60
67822;BMP180;54434;50.096;20.082;2022-12-18T09:48:28;100795.40;;;-1.60
67822;BMP180;54434;50.096;20.082;2022-12-18T09:51:14;100802.40;;;-1.70
67822;BMP180;54434;50.096;20.082;2022-12-18T09:53:59;100799.40;;;-1.70
67822;BMP180;54434;50.096;20.082;2022-12-18T09:56:44;100794.80;;;-1.70
67822;BMP180;54434;50.096;20.082;2022-12-18T09:59:30;100795.60;;;-1.78
67822;BMP180;54434;50.096;20.082;2022-12-18T10:02:23;100797.40;;;-1.84
67822;BMP180;54434;50.096;20.082;2022-12-18T10:05:10;100799.80;;;-1.90
67822;BMP180;54434;50.096;20.082;2022-12-18T10:08:02;100796.80;;;-2.00
67822;BMP180;54434;50.096;20.082;2022-12-18T10:10:46;100796.20;;;-2.10
67822;BMP180;54434;50.096;20.082;2022-12-18T10:13:38;100794.40;;;-2.20
67822;BMP180;54434;50.096;20.082;2022-12-18T10:16:17;100799.40;;;-2.24
67822;BMP180;54434;50.096;20.082;2022-12-18T10:19:35;100800.20;;;-2.30
67822;BMP180;54434;50.096;20.082;2022-12-18T10:22:30;100796.60;;;-2.40
67822;BMP180;54434;50.096;20.082;2022-12-18T10:25:24;100801.00;;;-2.40
67822;BMP180;54434;50.096;20.082;2022-12-18T10:28:13;100804.20;;;-2.40
67822;BMP180;54434;50.096;20.082;2022-12-18T10:30:49;100803.80;;;-2.38
67822;BMP180;54434;50.096;20.082;2022-12-18T10:33:30;100802.00;;;-2.22
67822;BMP180;54434;50.096;20.082;2022-12-18T10:36:08;100805.60;;;-2.00
67822;BMP180;54434;50.096;20.082;2022-12-18T10:38:46;100791.60;;;-1.80
67822;BMP180;54434;50.096;20.082;2022-12-18T10:41:31;100791.40;;;-1.60
67822;BMP180;54434;50.096;20.082;2022-12-18T10:44:22;100785.40;;;-1.40
67822;BMP180;54434;50.096;20.082;2022-12-18T10:47:12;100785.60;;;-1.20
67822;BMP180;54434;50.096;20.082;2022-12-18T10:49:55;100789.60;;;-1.00
67822;BMP180;54434;50.096;20.082;2022-12-18T10:52:32;100793.20;;;-0.90
67822;BMP180;54434;50.096;20.082;2022-12-18T10:55:19;100791.00;;;-0.80
67822;BMP180;54434;50.096;20.082;2022-12-18T10:58:15;100791.00;;;-0.80
67822;BMP180;54434;50.096;20.082;2022-12-18T11:01:14;100787.40;;;-0.82
67822;BMP180;54434;50.096;20.082;2022-12-18T11:04:15;100782.20;;;-0.90
67822;BMP180;54434;50.096;20.082;2022-12-18T11:07:01;100779.40;;;-0.90
67822;BMP180;54434;50.096;20.082;2022-12-18T11:09:41;100779.60;;;-0.90
67822;BMP180;54434;50.096;20.082;2022-12-18T11:12:23;100777.60;;;-0.90
67822;BMP180;54434;50.096;20.082;2022-12-18T11:14:58;100778.60;;;-0.88
67822;BMP180;54434;50.096;20.082;2022-12-18T11:17:37;100770.60;;;-0.90
67822;BMP180;54434;50.096;20.082;2022-12-18T11:20:32;100777.40;;;-0.92
67822;BMP180;54434;50.096;20.082;2022-12-18T11:23:16;100763.60;;;-0.98
67822;BMP180;54434;50.096;20.082;2022-12-18T11:26:01;100755.80;;;-1.00
67822;BMP180;54434;50.096;20.082;2022-12-18T11:28:45;100758.80;;;-1.10
67822;BMP180;54434;50.096;20.082;2022-12-18T11:31:28;100764.00;;;-1.20
67822;BMP180;54434;50.096;20.082;2022-12-18T11:34:14;100756.40;;;-1.30
67822;BMP180;54434;50.096;20.082;2022-12-18T11:37:09;100753.60;;;-1.40
67822;BMP180;54434;50.096;20.082;2022-12-18T11:39:51;100757.20;;;-1.60
67822;BMP180;54434;50.096;20.082;2022-12-18T11:42:37;100758.20;;;-1.80
67822;BMP180;54434;50.096;20.082;2022-12-18T11:45:31;100763.40;;;-1.90
67822;BMP180;54434;50.096;20.082;2022-12-18T11:48:19;100771.20;;;-2.04
67822;BMP180;54434;50.096;20.082;2022-12-18T11:50:59;100770.20;;;-2.14
67822;BMP180;54434;50.096;20.082;2022-12-18T11:53:35;100773.00;;;-2.20
67822;BMP180;54434;50.096;20.082;2022-12-18T11:56:31;100776.80;;;-2.30
67822;BMP180;54434;50.096;20.082;2022-12-18T11:59:27;100779.80;;;-2.40
67822;BMP180;54434;50.096;20.082;2022-12-18T12:02:33;100771.80;;;-2.48
67822;BMP180;54434;50.096;20.082;2022-12-18T12:05:44;100772.80;;;-2.50
67822;BMP180;54434;50.096;20.082;2022-12-18T12:08:35;100777.80;;;-2.50
67822;BMP180;54434;50.096;20.082;2022-12-18T12:11:26;100775.40;;;-2.52
67822;BMP180;54434;50.096;20.082;2022-12-18T12:14:29;100771.40;;;-2.52
67822;BMP180;54434;50.096;20.082;2022-12-18T12:17:17;100766.40;;;-2.60
67822;BMP180;54434;50.096;20.082;2022-12-18T12:20:05;100769.80;;;-2.70
67822;BMP180;54434;50.096;20.082;2022-12-18T12:22:56;100771.20;;;-2.80
67822;BMP180;54434;50.096;20.082;2022-12-18T12:25:46;100767.60;;;-2.80
67822;BMP180;54434;50.096;20.082;2022-12-18T12:28:54;100767.80;;;-2.80
67822;BMP180;54434;50.096;20.082;2022-12-18T12:31:53;100772.20;;;-2.84
67822;BMP180;54434;50.096;20.082;2022-12-18T12:34:42;100783.20;;;-2.90
67822;BMP180;54434;50.096;20.082;2022-12-18T12:37:36;100785.60;;;-2.90
67822;BMP180;54434;50.096;20.082;2022-12-18T12:40:22;100792.60;;;-2.90
67822;BMP180;54434;50.096;20.082;2022-12-18T12:43:34;100796.00;;;-2.90
67822;BMP180;54434;50.096;20.082;2022-12-18T12:46:20;100797.80;;;-3.00
67822;BMP180;54434;50.096;20.082;2022-12-18T12:49:03;100805.40;;;-3.00
67822;BMP180;54434;50.096;20.082;2022-12-18T12:51:45;100807.80;;;-3.00
67822;BMP180;54434;50.096;20.082;2022-12-18T12:54:24;100809.60;;;-3.02
67822;BMP180;54434;50.096;20.082;2022-12-18T12:57:10;100812.20;;;-3.10
67822;BMP180;54434;50.096;20.082;2022-12-18T13:00:03;100818.20;;;-3.10
67822;BMP180;54434;50.096;20.082;2022-12-18T13:02:49;100824.80;;;-3.10
67822;BMP180;54434;50.096;20.082;2022-12-18T13:05:38;100819.60;;;-3.10
67822;BMP180;54434;50.096;20.082;2022-12-18T13:08:27;100826.20;;;-3.10
67822;BMP180;54434;50.096;20.082;2022-12-18T13:11:35;100830.00;;;-3.14
67822;BMP180;54434;50.096;20.082;2022-12-18T13:14:37;100829.20;;;-3.18
67822;BMP180;54434;50.096;20.082;2022-12-18T13:17:32;100831.20;;;-3.20
67822;BMP180;54434;50.096;20.082;2022-12-18T13:20:15;100834.60;;;-3.20
67822;BMP180;54434;50.096;20.082;2022-12-18T13:22:52;100836.00;;;-3.40
67822;BMP180;54434;50.096;20.082;2022-12-18T13:25:37;100835.80;;;-3.60
67822;BMP180;54434;50.096;20.082;2022-12-18T13:28:16;100846.00;;;-3.70
67822;BMP180;54434;50.096;20.082;2022-12-18T13:30:58;100846.20;;;-3.80
67822;BMP180;54434;50.096;20.082;2022-12-18T13:33:45;100847.60;;;-3.80
67822;BMP180;54434;50.096;20.082;2022-12-18T13:36:42;100847.20;;;-3.84
67822;BMP180;54434;50.096;20.082;2022-12-18T13:39:36;100852.80;;;-4.00
67822;BMP180;54434;50.096;20.082;2022-12-18T13:42:46;100862.60;;;-4.04
67822;BMP180;54434;50.096;20.082;2022-12-18T13:46:00;100857.80;;;-4.20
67822;BMP180;54434;50.096;20.082;2022-12-18T13:48:40;100862.40;;;-4.30
67822;BMP180;54434;50.096;20.082;2022-12-18T13:51:26;100867.60;;;-4.46
67822;BMP180;54434;50.096;20.082;2022-12-18T13:54:13;100868.00;;;-4.56
67822;BMP180;54434;50.096;20.082;2022-12-18T13:56:53;100875.20;;;-4.60
67822;BMP180;54434;50.096;20.082;2022-12-18T13:59:37;100877.40;;;-4.76
67822;BMP180;54434;50.096;20.082;2022-12-18T14:02:20;100881.40;;;-5.00
67822;BMP180;54434;50.096;20.082;2022-12-18T14:04:57;100879.80;;;-5.20
67822;BMP180;54434;50.096;20.082;2022-12-18T14:07:34;100878.60;;;-5.32
67822;BMP180;54434;50.096;20.082;2022-12-18T14:10:19;100884.80;;;-5.40
67822;BMP180;54434;50.096;20.082;2022-12-18T14:13:26;100885.20;;;-5.50
67822;BMP180;54434;50.096;20.082;2022-12-18T14:16:07;100887.20;;;-5.70
67822;BMP180;54434;50.096;20.082;2022-12-18T14:18:50;100888.20;;;-5.80
67822;BMP180;54434;50.096;20.082;2022-12-18T14:21:36;100898.00;;;-5.98
67822;BMP180;54434;50.096;20.082;2022-12-18T14:24:21;100904.60;;;-6.20
67822;BMP180;54434;50.096;20.082;2022-12-18T14:27:19;100896.60;;;-6.48
67822;BMP180;54434;50.096;20.082;2022-12-18T14:29:56;100896.20;;;-6.70
67822;BMP180;54434;50.096;20.082;2022-12-18T14:32:32;100901.40;;;-6.90
67822;BMP180;54434;50.096;20.082;2022-12-18T14:35:19;100904.00;;;-7.10
67822;BMP180;54434;50.096;20.082;2022-12-18T14:38:15;100903.80;;;-7.30
67822;BMP180;54434;50.096;20.082;2022-12-18T14:41:00;100900.80;;;-7.50
67822;BMP180;54434;50.096;20.082;2022-12-18T14:43:40;100901.40;;;-7.70
67822;BMP180;54434;50.096;20.082;2022-12-18T14:46:38;100904.00;;;-7.90
67822;BMP180;54434;50.096;20.082;2022-12-18T14:49:30;100906.80;;;-8.16
67822;BMP180;54434;50.096;20.082;2022-12-18T14:52:27;100909.20;;;-8.36
67822;BMP180;54434;50.096;20.082;2022-12-18T14:55:13;100914.20;;;-8.58
67822;BMP180;54434;50.096;20.082;2022-12-18T14:57:54;100912.20;;;-8.70
67822;BMP180;54434;50.096;20.082;2022-12-18T15:00:31;100908.00;;;-8.80
67822;BMP180;54434;50.096;20.082;2022-12-18T15:03:10;100915.40;;;-8.90
67822;BMP180;54434;50.096;20.082;2022-12-18T15:05:49;100911.20;;;-9.06